createdAt,value
2018-03-28T00:00:11.304Z,5.90
2018-03-28T00:01:08.283Z,5.90
2018-03-28T00:02:05.919Z,5.90
2018-03-28T00:03:05.933Z,5.90
2018-03-28T00:04:05.548Z,5.90
2018-03-28T00:05:08.533Z,5.90
2018-03-28T00:06:08.663Z,5.90
2018-03-28T00:07:11.154Z,5.90
2018-03-28T00:08:07.956Z,5.90
2018-03-28T00:09:10.441Z,5.90
2018-03-28T00:10:05.196Z,5.90
2018-03-28T00:11:11.204Z,5.90
2018-03-28T00:12:05.718Z,5.90
2018-03-28T00:13:09.568Z,5.90
2018-03-28T00:14:05.995Z,5.90
2018-03-28T00:15:05.510Z,5.90
2018-03-28T00:16:05.766Z,5.90
2018-03-28T00:17:05.576Z,5.90
2018-03-28T00:18:06.009Z,5.90
2018-03-28T00:19:05.406Z,5.90
2018-03-28T00:20:05.847Z,5.80
2018-03-28T00:21:05.492Z,5.90
2018-03-28T00:22:05.963Z,5.80
2018-03-28T00:23:05.248Z,5.90
2018-03-28T00:24:06.013Z,5.90
2018-03-28T00:25:06.093Z,5.90
2018-03-28T00:26:05.865Z,5.90
2018-03-28T00:27:05.952Z,5.80
2018-03-28T00:28:05.902Z,5.80
2018-03-28T00:29:11.009Z,5.80
2018-03-28T00:30:05.432Z,5.80
2018-03-28T00:31:08.568Z,5.80
2018-03-28T00:32:09.276Z,5.80
2018-03-28T00:33:05.757Z,5.80
2018-03-28T00:34:05.936Z,5.90
2018-03-28T00:35:05.462Z,5.90
2018-03-28T00:36:06.033Z,5.10
2018-03-28T00:37:06.150Z,5.80
2018-03-28T00:38:05.875Z,5.80
2018-03-28T00:39:05.436Z,5.90
2018-03-28T00:40:05.924Z,5.80
2018-03-28T00:41:08.517Z,5.90
2018-03-28T00:42:08.594Z,5.90
2018-03-28T00:43:09.204Z,5.80
2018-03-28T00:44:05.852Z,5.80
2018-03-28T00:45:05.174Z,5.80
2018-03-28T00:46:09.401Z,5.80
2018-03-28T00:47:07.848Z,5.80
2018-03-28T00:48:07.990Z,5.80
2018-03-28T00:49:05.382Z,5.80
2018-03-28T00:50:05.792Z,5.80
2018-03-28T00:51:05.989Z,5.80
2018-03-28T00:52:05.152Z,5.80
2018-03-28T00:53:05.738Z,5.80
2018-03-28T00:54:08.797Z,5.80
2018-03-28T00:55:09.390Z,5.80
2018-03-28T00:56:05.750Z,5.80
2018-03-28T00:57:05.967Z,5.80
2018-03-28T00:58:06.064Z,5.80
2018-03-28T00:59:05.591Z,5.70
2018-03-28T01:00:06.167Z,5.70
2018-03-28T01:01:11.213Z,5.70
2018-03-28T01:02:05.522Z,5.70
2018-03-28T01:03:08.571Z,5.80
2018-03-28T01:04:08.560Z,5.70
2018-03-28T01:05:08.501Z,5.70
2018-03-28T01:06:05.848Z,5.70
2018-03-28T01:07:05.998Z,5.70
2018-03-28T01:08:10.899Z,5.70
2018-03-28T01:09:10.319Z,5.70
2018-03-28T01:10:05.828Z,5.70
2018-03-28T01:11:05.505Z,5.70
2018-03-28T01:12:05.418Z,5.70
2018-03-28T01:13:05.860Z,5.70
2018-03-28T01:14:10.375Z,5.70
2018-03-28T01:15:05.907Z,5.70
2018-03-28T01:16:06.998Z,5.70
2018-03-28T01:17:05.965Z,5.70
2018-03-28T01:18:05.175Z,5.70
2018-03-28T01:19:08.992Z,5.70
2018-03-28T01:20:08.621Z,5.70
2018-03-28T01:21:09.406Z,5.70
2018-03-28T01:22:05.892Z,5.70
2018-03-28T01:23:05.650Z,5.70
2018-03-28T01:24:05.195Z,5.70
2018-03-28T01:25:06.142Z,5.70
2018-03-28T01:26:08.263Z,5.70
2018-03-28T01:27:05.789Z,5.70
2018-03-28T01:28:05.204Z,5.70
2018-03-28T01:29:05.370Z,5.60
2018-03-28T01:30:05.240Z,5.70
2018-03-28T01:31:10.389Z,5.60
2018-03-28T01:32:05.759Z,5.70
2018-03-28T01:33:08.783Z,5.60
2018-03-28T01:34:05.335Z,5.60
2018-03-28T01:35:05.255Z,5.70
2018-03-28T01:36:06.146Z,5.70
2018-03-28T01:37:08.027Z,5.60
2018-03-28T01:38:08.947Z,5.70
2018-03-28T01:39:05.347Z,5.60
2018-03-28T01:40:05.257Z,5.60
2018-03-28T01:41:05.421Z,5.70
2018-03-28T01:42:05.323Z,5.60
2018-03-28T01:43:05.284Z,5.60
2018-03-28T01:44:08.443Z,5.60
2018-03-28T01:45:05.965Z,5.60
2018-03-28T01:46:10.540Z,5.60
2018-03-28T01:47:07.817Z,5.60
2018-03-28T01:48:05.176Z,5.60
2018-03-28T01:49:05.387Z,5.60
2018-03-28T01:50:05.556Z,5.60
2018-03-28T01:51:05.849Z,5.60
2018-03-28T01:52:05.198Z,5.60
2018-03-28T01:53:05.152Z,5.60
2018-03-28T01:54:05.647Z,5.60
2018-03-28T01:55:05.456Z,5.60
2018-03-28T01:56:08.175Z,5.60
2018-03-28T01:57:05.698Z,5.60
2018-03-28T01:58:05.478Z,5.60
2018-03-28T01:59:05.862Z,5.60
2018-03-28T02:00:09.477Z,5.60
2018-03-28T02:01:06.996Z,5.60
2018-03-28T02:02:05.484Z,5.60
2018-03-28T02:03:05.805Z,5.60
2018-03-28T02:04:08.466Z,5.60
2018-03-28T02:05:05.895Z,5.60
2018-03-28T02:06:05.220Z,5.60
2018-03-28T02:07:09.453Z,4.80
2018-03-28T02:08:05.950Z,5.50
2018-03-28T02:09:10.762Z,5.60
2018-03-28T02:10:08.009Z,5.60
2018-03-28T02:11:08.878Z,5.60
2018-03-28T02:12:05.363Z,5.60
2018-03-28T02:13:05.941Z,5.60
2018-03-28T02:14:05.835Z,5.60
2018-03-28T02:15:09.023Z,5.60
2018-03-28T02:16:08.036Z,5.60
2018-03-28T02:17:05.518Z,5.50
2018-03-28T02:18:06.038Z,5.60
2018-03-28T02:19:07.752Z,5.50
2018-03-28T02:20:05.163Z,5.50
2018-03-28T02:21:10.840Z,5.50
2018-03-28T02:22:10.625Z,5.50
2018-03-28T02:23:09.251Z,5.50
2018-03-28T02:24:06.029Z,5.50
2018-03-28T02:25:05.574Z,5.50
2018-03-28T02:26:06.001Z,5.50
2018-03-28T02:27:05.603Z,5.50
2018-03-28T02:28:11.101Z,5.50
2018-03-28T02:29:05.353Z,5.50
2018-03-28T02:30:08.889Z,5.50
2018-03-28T02:31:05.408Z,5.50
2018-03-28T02:32:06.192Z,5.50
2018-03-28T02:33:05.900Z,5.50
2018-03-28T02:34:06.147Z,5.50
2018-03-28T02:35:06.064Z,5.50
2018-03-28T02:36:07.669Z,5.50
2018-03-28T02:37:06.214Z,5.50
2018-03-28T02:38:08.794Z,5.50
2018-03-28T02:39:05.384Z,5.50
2018-03-28T02:40:05.269Z,5.50
2018-03-28T02:41:05.226Z,5.50
2018-03-28T02:42:13.100Z,5.50
2018-03-28T02:43:08.795Z,5.50
2018-03-28T02:44:05.290Z,5.50
2018-03-28T02:45:06.253Z,5.50
2018-03-28T02:46:10.891Z,5.50
2018-03-28T02:47:05.571Z,5.50
2018-03-28T02:48:05.472Z,5.50
2018-03-28T02:49:05.688Z,5.50
2018-03-28T02:50:05.318Z,5.50
2018-03-28T02:51:05.191Z,5.50
2018-03-28T02:52:05.947Z,5.60
2018-03-28T02:53:05.642Z,5.50
2018-03-28T02:54:05.312Z,5.50
2018-03-28T02:55:05.880Z,5.60
2018-03-28T02:56:06.527Z,5.60
2018-03-28T02:57:06.002Z,5.50
2018-03-28T02:58:05.746Z,5.50
2018-03-28T02:59:05.461Z,5.60
2018-03-28T03:00:05.618Z,5.50
2018-03-28T03:01:05.279Z,5.60
2018-03-28T03:02:05.343Z,5.60
2018-03-28T03:03:05.395Z,5.60
2018-03-28T03:04:09.393Z,5.60
2018-03-28T03:05:05.855Z,5.60
2018-03-28T03:06:05.915Z,5.60
2018-03-28T03:07:05.513Z,5.60
2018-03-28T03:08:05.745Z,5.60
2018-03-28T03:09:06.265Z,5.60
2018-03-28T03:10:09.278Z,5.50
2018-03-28T03:11:05.730Z,5.60
2018-03-28T03:12:05.491Z,5.60
2018-03-28T03:13:05.275Z,5.60
2018-03-28T03:14:05.155Z,5.60
2018-03-28T03:15:05.146Z,5.60
2018-03-28T03:16:06.045Z,5.60
2018-03-28T03:17:05.330Z,5.60
2018-03-28T03:18:05.158Z,5.60
2018-03-28T03:19:05.723Z,5.60
2018-03-28T03:20:05.405Z,5.60
2018-03-28T03:21:09.811Z,5.60
2018-03-28T03:22:06.047Z,5.60
2018-03-28T03:23:05.260Z,5.60
2018-03-28T03:24:08.440Z,5.60
2018-03-28T03:25:10.152Z,5.60
2018-03-28T03:26:05.841Z,5.60
2018-03-28T03:27:05.852Z,5.60
2018-03-28T03:28:05.544Z,5.60
2018-03-28T03:29:06.120Z,5.60
2018-03-28T03:30:13.154Z,5.60
2018-03-28T03:31:10.572Z,5.60
2018-03-28T03:32:05.428Z,5.60
2018-03-28T03:33:05.723Z,5.60
2018-03-28T03:34:05.120Z,5.60
2018-03-28T03:35:05.224Z,5.60
2018-03-28T03:36:09.386Z,5.60
2018-03-28T03:37:14.263Z,5.60
2018-03-28T03:38:08.858Z,5.60
2018-03-28T03:39:05.179Z,5.60
2018-03-28T03:40:06.606Z,5.60
2018-03-28T03:41:05.618Z,5.60
2018-03-28T03:42:05.611Z,5.60
2018-03-28T03:43:08.637Z,5.60
2018-03-28T03:44:09.606Z,5.60
2018-03-28T03:45:06.177Z,5.60
2018-03-28T03:46:09.280Z,5.60
2018-03-28T03:47:09.022Z,5.60
2018-03-28T03:48:08.728Z,5.60
2018-03-28T03:49:05.118Z,5.60
2018-03-28T03:50:05.416Z,5.60
2018-03-28T03:51:08.744Z,5.60
2018-03-28T03:52:05.296Z,5.60
2018-03-28T03:53:05.606Z,5.60
2018-03-28T03:54:06.075Z,5.60
2018-03-28T03:55:08.950Z,5.60
2018-03-28T03:56:09.306Z,5.50
2018-03-28T03:57:05.824Z,5.60
2018-03-28T03:58:05.809Z,5.60
2018-03-28T03:59:05.497Z,5.60
2018-03-28T04:00:10.436Z,5.60
2018-03-28T04:01:05.894Z,5.60
2018-03-28T04:02:05.897Z,5.50
2018-03-28T04:03:09.111Z,5.60
2018-03-28T04:04:05.654Z,5.60
2018-03-28T04:05:05.913Z,5.60
2018-03-28T04:06:05.976Z,5.60
2018-03-28T04:07:05.369Z,5.60
2018-03-28T04:08:06.039Z,5.60
2018-03-28T04:09:10.380Z,5.60
2018-03-28T04:10:06.727Z,5.60
2018-03-28T04:11:05.328Z,5.60
2018-03-28T04:12:05.586Z,5.60
2018-03-28T04:13:05.938Z,5.60
2018-03-28T04:14:07.790Z,5.60
2018-03-28T04:15:07.817Z,5.60
2018-03-28T04:16:07.718Z,5.60
2018-03-28T04:17:06.130Z,5.60
2018-03-28T04:18:11.095Z,5.60
2018-03-28T04:19:10.744Z,5.60
2018-03-28T04:20:05.779Z,5.60
2018-03-28T04:21:05.140Z,5.60
2018-03-28T04:22:05.575Z,5.60
2018-03-28T04:23:05.953Z,5.60
2018-03-28T04:24:05.450Z,5.60
2018-03-28T04:25:06.333Z,5.60
2018-03-28T04:26:05.376Z,5.50
2018-03-28T04:27:05.508Z,5.50
2018-03-28T04:28:05.525Z,5.50
2018-03-28T04:29:06.133Z,5.50
2018-03-28T04:30:11.057Z,5.50
2018-03-28T04:31:05.542Z,5.50
2018-03-28T04:32:06.147Z,5.50
2018-03-28T04:33:06.434Z,5.50
2018-03-28T04:34:05.372Z,5.50
2018-03-28T04:35:09.890Z,5.50
2018-03-28T04:36:05.293Z,5.50
2018-03-28T04:37:05.266Z,5.40
2018-03-28T04:38:08.380Z,5.40
2018-03-28T04:39:09.367Z,5.40
2018-03-28T04:40:09.263Z,5.40
2018-03-28T04:41:05.686Z,5.40
2018-03-28T04:42:06.120Z,5.40
2018-03-28T04:43:08.655Z,5.40
2018-03-28T04:44:06.137Z,5.40
2018-03-28T04:45:05.453Z,5.40
2018-03-28T04:46:07.857Z,5.40
2018-03-28T04:47:05.228Z,5.40
2018-03-28T04:48:11.073Z,5.40
2018-03-28T04:49:05.350Z,5.40
2018-03-28T04:50:05.073Z,5.30
2018-03-28T04:51:05.291Z,5.30
2018-03-28T04:52:05.255Z,5.30
2018-03-28T04:53:08.766Z,5.40
2018-03-28T04:54:05.310Z,5.30
2018-03-28T04:55:09.483Z,5.40
2018-03-28T04:56:05.998Z,5.30
2018-03-28T04:57:05.669Z,5.40
2018-03-28T04:58:05.885Z,5.40
2018-03-28T04:59:06.505Z,5.40
2018-03-28T05:00:06.114Z,5.40
2018-03-28T05:01:08.765Z,5.40
2018-03-28T05:02:10.254Z,5.30
2018-03-28T05:03:08.369Z,5.30
2018-03-28T05:04:06.109Z,5.30
2018-03-28T05:05:06.269Z,5.40
2018-03-28T05:06:05.919Z,5.30
2018-03-28T05:07:08.237Z,5.30
2018-03-28T05:08:05.708Z,5.30
2018-03-28T05:09:08.302Z,5.40
2018-03-28T05:10:09.007Z,5.30
2018-03-28T05:11:05.517Z,5.40
2018-03-28T05:12:05.564Z,5.40
2018-03-28T05:13:05.955Z,5.30
2018-03-28T05:14:05.632Z,5.30
2018-03-28T05:15:05.752Z,5.40
2018-03-28T05:16:05.718Z,5.40
2018-03-28T05:17:05.134Z,5.40
2018-03-28T05:18:06.067Z,5.40
2018-03-28T05:19:05.866Z,5.40
2018-03-28T05:20:05.589Z,5.40
2018-03-28T05:21:05.204Z,5.40
2018-03-28T05:22:06.064Z,5.40
2018-03-28T05:23:05.925Z,5.40
2018-03-28T05:24:05.438Z,5.30
2018-03-28T05:25:10.460Z,5.40
2018-03-28T05:26:06.049Z,5.40
2018-03-28T05:27:05.380Z,5.40
2018-03-28T05:28:06.164Z,5.40
2018-03-28T05:29:09.510Z,5.30
2018-03-28T05:30:11.024Z,5.40
2018-03-28T05:31:08.762Z,5.40
2018-03-28T05:32:05.654Z,5.30
2018-03-28T05:33:05.557Z,5.40
2018-03-28T05:34:07.519Z,5.40
2018-03-28T05:35:09.360Z,5.40
2018-03-28T05:36:08.521Z,5.40
2018-03-28T05:37:05.875Z,5.40
2018-03-28T05:38:12.591Z,5.40
2018-03-28T05:39:08.556Z,5.40
2018-03-28T05:40:05.966Z,5.40
2018-03-28T05:41:05.667Z,5.40
2018-03-28T05:42:09.117Z,5.40
2018-03-28T05:43:07.334Z,5.40
2018-03-28T05:44:05.161Z,5.40
2018-03-28T05:45:06.094Z,5.40
2018-03-28T05:46:06.198Z,5.40
2018-03-28T05:47:09.226Z,5.40
2018-03-28T05:48:05.848Z,5.40
2018-03-28T05:49:08.152Z,5.40
2018-03-28T05:50:05.634Z,5.40
2018-03-28T05:51:09.392Z,5.50
2018-03-28T05:52:05.997Z,5.50
2018-03-28T05:53:05.850Z,5.50
2018-03-28T05:54:05.779Z,5.50
2018-03-28T05:55:05.548Z,5.50
2018-03-28T05:56:05.656Z,5.50
2018-03-28T05:57:05.273Z,5.50
2018-03-28T05:58:05.807Z,5.50
2018-03-28T05:59:05.477Z,5.50
2018-03-28T06:00:05.182Z,5.50
2018-03-28T06:01:05.797Z,5.50
2018-03-28T06:02:05.417Z,5.50
2018-03-28T06:03:14.306Z,5.50
2018-03-28T06:04:16.980Z,5.50
2018-03-28T06:05:09.110Z,5.50
2018-03-28T06:06:08.270Z,5.50
2018-03-28T06:07:05.869Z,5.50
2018-03-28T06:08:11.250Z,5.50
2018-03-28T06:09:06.783Z,5.50
2018-03-28T06:10:09.783Z,5.60
2018-03-28T06:11:05.297Z,5.50
2018-03-28T06:12:13.442Z,5.60
2018-03-28T06:13:05.789Z,5.50
2018-03-28T06:14:05.507Z,5.60
2018-03-28T06:15:08.175Z,5.60
2018-03-28T06:16:08.185Z,5.50
2018-03-28T06:17:05.811Z,5.60
2018-03-28T06:18:07.711Z,5.60
2018-03-28T06:19:06.201Z,5.50
2018-03-28T06:20:05.136Z,5.60
2018-03-28T06:21:05.882Z,5.60
2018-03-28T06:22:05.306Z,5.60
2018-03-28T06:23:05.316Z,5.60
2018-03-28T06:24:13.007Z,5.50
2018-03-28T06:25:08.037Z,5.60
2018-03-28T06:26:05.504Z,5.60
2018-03-28T06:27:05.288Z,5.60
2018-03-28T06:28:05.885Z,5.50
2018-03-28T06:29:05.671Z,5.60
2018-03-28T06:30:05.376Z,5.60
2018-03-28T06:31:05.810Z,5.60
2018-03-28T06:32:05.552Z,5.60
2018-03-28T06:33:08.998Z,5.60
2018-03-28T06:34:05.485Z,5.60
2018-03-28T06:35:08.859Z,5.70
2018-03-28T06:36:05.287Z,5.60
2018-03-28T06:37:05.424Z,5.70
2018-03-28T06:38:05.708Z,5.70
2018-03-28T06:39:05.691Z,5.70
2018-03-28T06:40:08.027Z,5.70
2018-03-28T06:41:11.126Z,5.70
2018-03-28T06:42:08.117Z,5.70
2018-03-28T06:43:05.528Z,5.70
2018-03-28T06:44:08.489Z,5.80
2018-03-28T06:45:05.994Z,5.80
2018-03-28T06:46:05.858Z,5.80
2018-03-28T06:47:09.281Z,5.80
2018-03-28T06:48:05.664Z,5.80
2018-03-28T06:49:05.403Z,5.80
2018-03-28T06:50:05.252Z,5.90
2018-03-28T06:51:05.768Z,5.90
2018-03-28T06:52:05.982Z,5.90
2018-03-28T06:53:10.539Z,5.90
2018-03-28T06:54:06.227Z,5.90
2018-03-28T06:55:11.063Z,5.90
2018-03-28T06:56:05.627Z,5.90
2018-03-28T06:57:08.248Z,5.90
2018-03-28T06:58:09.896Z,6.00
2018-03-28T06:59:08.633Z,6.00
2018-03-28T07:00:09.472Z,6.00
2018-03-28T07:01:06.255Z,6.00
2018-03-28T07:02:05.962Z,6.00
2018-03-28T07:03:09.029Z,6.00
2018-03-28T07:04:05.533Z,6.00
2018-03-28T07:05:08.928Z,6.00
2018-03-28T07:06:10.510Z,6.00
2018-03-28T07:07:05.929Z,6.00
2018-03-28T07:08:05.128Z,6.00
2018-03-28T07:09:05.426Z,6.00
2018-03-28T07:10:06.133Z,6.10
2018-03-28T07:11:05.270Z,6.10
2018-03-28T07:12:09.459Z,6.00
2018-03-28T07:13:06.014Z,6.00
2018-03-28T07:14:05.377Z,6.10
2018-03-28T07:15:05.422Z,6.10
2018-03-28T07:16:09.457Z,6.10
2018-03-28T07:17:11.074Z,6.10
2018-03-28T07:18:10.723Z,6.10
2018-03-28T07:19:05.430Z,6.10
2018-03-28T07:20:05.838Z,6.10
2018-03-28T07:21:08.817Z,6.20
2018-03-28T07:22:10.330Z,6.20
2018-03-28T07:23:09.035Z,6.20
2018-03-28T07:24:08.225Z,6.20
2018-03-28T07:25:08.920Z,6.20
2018-03-28T07:26:05.293Z,6.20
2018-03-28T07:27:09.510Z,6.20
2018-03-28T07:28:11.028Z,6.30
2018-03-28T07:29:07.886Z,6.30
2018-03-28T07:30:05.598Z,6.20
2018-03-28T07:31:05.211Z,6.30
2018-03-28T07:32:06.051Z,6.30
2018-03-28T07:33:05.533Z,6.30
2018-03-28T07:34:10.853Z,6.30
2018-03-28T07:35:10.419Z,6.40
2018-03-28T07:36:05.854Z,6.40
2018-03-28T07:37:07.992Z,6.40
2018-03-28T07:38:08.003Z,6.40
2018-03-28T07:39:05.458Z,6.40
2018-03-28T07:40:08.813Z,6.40
2018-03-28T07:41:05.257Z,6.50
2018-03-28T07:42:05.313Z,6.40
2018-03-28T07:43:07.080Z,6.50
2018-03-28T07:44:09.082Z,6.50
2018-03-28T07:45:06.225Z,6.50
2018-03-28T07:46:05.893Z,6.50
2018-03-28T07:47:05.792Z,6.50
2018-03-28T07:48:05.685Z,6.50
2018-03-28T07:49:05.666Z,6.50
2018-03-28T07:50:05.248Z,6.60
2018-03-28T07:51:05.549Z,6.60
2018-03-28T07:52:05.343Z,6.60
2018-03-28T07:53:05.283Z,6.60
2018-03-28T07:54:05.137Z,6.60
2018-03-28T07:55:05.784Z,6.60
2018-03-28T07:56:10.251Z,6.70
2018-03-28T07:57:05.691Z,6.70
2018-03-28T07:58:05.309Z,6.70
2018-03-28T07:59:06.171Z,6.70
2018-03-28T08:00:05.869Z,6.70
2018-03-28T08:01:06.125Z,6.70
2018-03-28T08:02:05.815Z,6.80
2018-03-28T08:03:05.864Z,6.70
2018-03-28T08:04:10.743Z,6.80
2018-03-28T08:05:05.708Z,6.80
2018-03-28T08:06:05.843Z,6.80
2018-03-28T08:07:11.191Z,6.80
2018-03-28T08:08:05.599Z,6.80
2018-03-28T08:09:09.485Z,6.80
2018-03-28T08:10:08.711Z,6.90
2018-03-28T08:11:07.711Z,6.90
2018-03-28T08:12:05.761Z,6.90
2018-03-28T08:13:05.549Z,6.90
2018-03-28T08:14:05.683Z,6.90
2018-03-28T08:15:05.708Z,6.90
2018-03-28T08:16:10.123Z,7.00
2018-03-28T08:17:06.146Z,7.00
2018-03-28T08:18:07.870Z,7.00
2018-03-28T08:19:07.830Z,7.10
2018-03-28T08:20:05.278Z,7.10
2018-03-28T08:21:09.433Z,7.10
2018-03-28T08:22:05.914Z,7.10
2018-03-28T08:23:05.494Z,7.20
2018-03-28T08:24:10.385Z,7.20
2018-03-28T08:25:05.738Z,7.20
2018-03-28T08:26:07.828Z,7.20
2018-03-28T08:27:08.782Z,7.30
2018-03-28T08:28:08.833Z,7.30
2018-03-28T08:29:05.336Z,7.30
2018-03-28T08:30:05.997Z,7.30
2018-03-28T08:31:05.264Z,7.30
2018-03-28T08:32:05.741Z,7.30
2018-03-28T08:33:07.728Z,7.30
2018-03-28T08:34:07.693Z,7.40
2018-03-28T08:35:06.090Z,7.40
2018-03-28T08:36:06.124Z,7.40
2018-03-28T08:37:05.228Z,7.40
2018-03-28T08:38:05.476Z,7.40
2018-03-28T08:39:05.946Z,7.40
2018-03-28T08:40:05.545Z,7.40
2018-03-28T08:41:06.174Z,7.40
2018-03-28T08:42:05.898Z,7.50
2018-03-28T08:43:09.580Z,7.50
2018-03-28T08:44:06.060Z,7.50
2018-03-28T08:45:05.877Z,7.50
2018-03-28T08:46:05.713Z,7.50
2018-03-28T08:47:09.950Z,7.60
2018-03-28T08:48:05.415Z,7.60
2018-03-28T08:49:08.612Z,7.60
2018-03-28T08:50:09.381Z,7.60
2018-03-28T08:51:08.346Z,7.60
2018-03-28T08:52:11.205Z,7.60
2018-03-28T08:53:05.683Z,7.60
2018-03-28T08:54:05.548Z,7.60
2018-03-28T08:55:05.602Z,7.60
2018-03-28T08:56:05.182Z,7.70
2018-03-28T08:57:06.201Z,7.70
2018-03-28T08:58:11.200Z,7.70
2018-03-28T08:59:05.687Z,7.70
2018-03-28T09:00:08.215Z,7.70
2018-03-28T09:01:05.632Z,7.70
2018-03-28T09:02:09.695Z,7.70
2018-03-28T09:03:06.143Z,7.70
2018-03-28T09:04:06.192Z,7.80
2018-03-28T09:05:10.315Z,7.80
2018-03-28T09:06:05.715Z,7.80
2018-03-28T09:07:05.938Z,7.80
2018-03-28T09:08:05.854Z,7.80
2018-03-28T09:09:05.567Z,7.80
2018-03-28T09:10:05.549Z,7.80
2018-03-28T09:11:09.445Z,7.90
2018-03-28T09:12:10.131Z,7.90
2018-03-28T09:13:05.973Z,7.90
2018-03-28T09:14:05.480Z,7.90
2018-03-28T09:15:13.331Z,8.00
2018-03-28T09:16:05.701Z,8.00
2018-03-28T09:17:08.290Z,8.00
2018-03-28T09:18:10.838Z,8.10
2018-03-28T09:19:05.287Z,8.00
2018-03-28T09:20:05.886Z,8.10
2018-03-28T09:21:05.296Z,8.10
2018-03-28T09:22:05.142Z,8.10
2018-03-28T09:23:05.262Z,8.10
2018-03-28T09:24:06.179Z,8.20
2018-03-28T09:25:05.561Z,8.20
2018-03-28T09:26:08.314Z,8.20
2018-03-28T09:27:06.095Z,8.20
2018-03-28T09:28:05.792Z,8.20
2018-03-28T09:29:05.576Z,8.20
2018-03-28T09:30:05.725Z,8.30
2018-03-28T09:31:05.893Z,8.30
2018-03-28T09:32:09.010Z,8.20
2018-03-28T09:33:10.630Z,8.30
2018-03-28T09:34:05.218Z,8.30
2018-03-28T09:35:05.837Z,8.30
2018-03-28T09:36:05.781Z,8.30
2018-03-28T09:37:05.823Z,8.30
2018-03-28T09:38:05.285Z,8.40
2018-03-28T09:39:05.514Z,8.40
2018-03-28T09:40:06.207Z,8.40
2018-03-28T09:41:09.228Z,8.40
2018-03-28T09:42:08.291Z,8.50
2018-03-28T09:43:05.715Z,8.50
2018-03-28T09:44:05.988Z,8.50
2018-03-28T09:45:05.277Z,8.50
2018-03-28T09:46:05.773Z,8.50
2018-03-28T09:47:05.804Z,8.50
2018-03-28T09:48:05.832Z,8.60
2018-03-28T09:49:05.947Z,8.60
2018-03-28T09:50:09.122Z,8.60
2018-03-28T09:51:09.260Z,8.60
2018-03-28T09:52:05.781Z,8.60
2018-03-28T09:53:09.369Z,8.70
2018-03-28T09:54:05.807Z,8.60
2018-03-28T09:55:10.306Z,8.60
2018-03-28T09:56:05.774Z,8.60
2018-03-28T09:57:06.853Z,8.70
2018-03-28T09:58:08.657Z,8.70
2018-03-28T09:59:06.140Z,8.70
2018-03-28T10:00:05.870Z,8.60
2018-03-28T10:01:05.419Z,8.60
2018-03-28T10:02:05.751Z,8.60
2018-03-28T10:03:05.783Z,8.60
2018-03-28T10:04:08.330Z,8.60
2018-03-28T10:05:08.360Z,8.60
2018-03-28T10:06:11.985Z,8.60
2018-03-28T10:07:09.684Z,8.60
2018-03-28T10:08:10.410Z,8.60
2018-03-28T10:09:10.161Z,8.60
2018-03-28T10:10:05.615Z,8.60
2018-03-28T10:11:05.486Z,8.60
2018-03-28T10:12:05.424Z,8.60
2018-03-28T10:13:05.910Z,8.60
2018-03-28T10:14:07.863Z,8.50
2018-03-28T10:15:05.316Z,8.50
2018-03-28T10:16:06.238Z,8.50
2018-03-28T10:17:09.056Z,8.50
2018-03-28T10:18:05.505Z,8.50
2018-03-28T10:19:05.648Z,8.50
2018-03-28T10:20:07.749Z,8.50
2018-03-28T10:21:05.142Z,8.50
2018-03-28T10:22:07.806Z,8.50
2018-03-28T10:23:05.326Z,8.50
2018-03-28T10:24:08.006Z,8.40
2018-03-28T10:25:05.419Z,8.50
2018-03-28T10:26:05.370Z,8.50
2018-03-28T10:27:08.332Z,8.50
2018-03-28T10:28:05.757Z,8.40
2018-03-28T10:29:08.306Z,8.50
2018-03-28T10:30:09.960Z,8.50
2018-03-28T10:31:06.200Z,8.50
2018-03-28T10:32:05.579Z,8.50
2018-03-28T10:33:08.416Z,8.50
2018-03-28T10:34:05.911Z,8.60
2018-03-28T10:35:09.562Z,8.60
2018-03-28T10:36:06.167Z,8.60
2018-03-28T10:37:09.088Z,8.60
2018-03-28T10:38:05.638Z,8.70
2018-03-28T10:39:06.131Z,8.70
2018-03-28T10:40:08.044Z,8.70
2018-03-28T10:41:05.550Z,8.70
2018-03-28T10:42:05.960Z,8.80
2018-03-28T10:43:07.868Z,8.80
2018-03-28T10:44:06.014Z,8.90
2018-03-28T10:45:05.336Z,8.90
2018-03-28T10:46:05.183Z,8.90
2018-03-28T10:47:10.895Z,9.00
2018-03-28T10:48:05.413Z,9.00
2018-03-28T10:49:05.897Z,9.10
2018-03-28T10:50:07.740Z,9.20
2018-03-28T10:51:06.160Z,9.20
2018-03-28T10:52:05.925Z,9.20
2018-03-28T10:53:05.936Z,9.30
2018-03-28T10:54:05.970Z,9.30
2018-03-28T10:55:10.462Z,9.40
2018-03-28T10:56:05.837Z,9.40
2018-03-28T10:57:05.445Z,9.40
2018-03-28T10:58:07.881Z,9.40
2018-03-28T10:59:08.268Z,9.50
2018-03-28T11:00:05.871Z,9.40
2018-03-28T11:01:08.830Z,9.50
2018-03-28T11:02:07.861Z,9.50
2018-03-28T11:03:05.278Z,9.50
2018-03-28T11:04:09.560Z,9.50
2018-03-28T11:05:06.025Z,9.50
2018-03-28T11:06:05.853Z,9.50
2018-03-28T11:07:05.211Z,9.50
2018-03-28T11:08:08.954Z,9.50
2018-03-28T11:09:05.436Z,9.50
2018-03-28T11:10:10.300Z,9.50
2018-03-28T11:11:08.267Z,9.50
2018-03-28T11:12:05.689Z,9.50
2018-03-28T11:13:05.577Z,9.50
2018-03-28T11:14:09.400Z,9.60
2018-03-28T11:15:05.903Z,9.50
2018-03-28T11:16:09.206Z,9.60
2018-03-28T11:17:09.918Z,9.60
2018-03-28T11:18:07.859Z,9.60
2018-03-28T11:19:05.284Z,9.60
2018-03-28T11:20:06.018Z,9.60
2018-03-28T11:21:11.060Z,9.50
2018-03-28T11:22:05.175Z,9.60
2018-03-28T11:23:05.200Z,9.60
2018-03-28T11:24:05.780Z,9.60
2018-03-28T11:25:07.798Z,9.60
2018-03-28T11:26:06.074Z,9.60
2018-03-28T11:27:05.440Z,9.60
2018-03-28T11:28:05.209Z,9.70
2018-03-28T11:29:05.798Z,9.60
2018-03-28T11:30:05.836Z,9.70
2018-03-28T11:31:10.619Z,9.70
2018-03-28T11:32:08.973Z,9.70
2018-03-28T11:33:07.977Z,9.70
2018-03-28T11:34:05.392Z,9.70
2018-03-28T11:35:08.038Z,9.70
2018-03-28T11:36:08.002Z,9.70
2018-03-28T11:37:05.438Z,9.70
2018-03-28T11:38:05.321Z,9.70
2018-03-28T11:39:05.466Z,9.70
2018-03-28T11:40:05.411Z,9.70
2018-03-28T11:41:05.636Z,9.70
2018-03-28T11:42:05.519Z,9.70
2018-03-28T11:43:05.442Z,9.80
2018-03-28T11:44:09.114Z,9.70
2018-03-28T11:45:05.515Z,9.70
2018-03-28T11:46:08.570Z,9.70
2018-03-28T11:47:06.246Z,9.70
2018-03-28T11:48:09.808Z,9.70
2018-03-28T11:49:05.166Z,9.70
2018-03-28T11:50:09.236Z,9.70
2018-03-28T11:51:05.708Z,9.70
2018-03-28T11:52:09.345Z,9.70
2018-03-28T11:53:08.561Z,9.70
2018-03-28T11:54:09.434Z,9.70
2018-03-28T11:55:05.866Z,9.70
2018-03-28T11:56:05.258Z,9.70
2018-03-28T11:57:05.876Z,9.70
2018-03-28T11:58:05.429Z,9.70
2018-03-28T11:59:05.167Z,9.70
2018-03-28T12:00:10.163Z,9.70
2018-03-28T12:01:05.487Z,9.70
2018-03-28T12:02:10.430Z,9.70
2018-03-28T12:03:05.787Z,9.70
2018-03-28T12:04:05.808Z,9.70
2018-03-28T12:05:05.861Z,9.70
2018-03-28T12:06:08.469Z,9.70
2018-03-28T12:07:05.792Z,9.70
2018-03-28T12:08:08.815Z,9.70
2018-03-28T12:09:07.975Z,9.80
2018-03-28T12:10:05.620Z,9.80
2018-03-28T12:11:05.702Z,9.80
2018-03-28T12:12:05.583Z,9.80
2018-03-28T12:13:05.453Z,9.80
2018-03-28T12:14:09.865Z,9.80
2018-03-28T12:15:05.398Z,9.80
2018-03-28T12:16:05.222Z,9.80
2018-03-28T12:17:05.762Z,9.80
2018-03-28T12:18:05.694Z,9.80
2018-03-28T12:19:05.726Z,9.80
2018-03-28T12:20:09.816Z,9.80
2018-03-28T12:21:05.369Z,9.80
2018-03-28T12:22:06.006Z,9.80
2018-03-28T12:23:06.144Z,9.80
2018-03-28T12:24:05.687Z,9.80
2018-03-28T12:25:08.899Z,9.70
2018-03-28T12:26:05.435Z,9.70
2018-03-28T12:27:05.958Z,9.80
2018-03-28T12:28:05.997Z,9.70
2018-03-28T12:29:05.927Z,9.80
2018-03-28T12:30:06.036Z,9.70
2018-03-28T12:31:05.433Z,9.70
2018-03-28T12:32:05.377Z,9.80
2018-03-28T12:33:05.997Z,9.70
2018-03-28T12:34:05.335Z,9.70
2018-03-28T12:35:06.060Z,9.80
2018-03-28T12:36:05.532Z,9.70
2018-03-28T12:37:05.307Z,9.80
2018-03-28T12:38:11.036Z,9.80
2018-03-28T12:39:06.055Z,9.80
2018-03-28T12:40:05.649Z,9.80
2018-03-28T12:41:08.000Z,9.80
2018-03-28T12:42:05.442Z,9.80
2018-03-28T12:43:05.678Z,9.80
2018-03-28T12:44:06.120Z,9.80
2018-03-28T12:45:09.057Z,9.80
2018-03-28T12:46:05.488Z,9.80
2018-03-28T12:47:08.436Z,9.80
2018-03-28T12:48:05.953Z,9.80
2018-03-28T12:49:05.643Z,9.80
2018-03-28T12:50:06.023Z,9.80
2018-03-28T12:51:11.138Z,9.80
2018-03-28T12:52:08.301Z,9.70
2018-03-28T12:53:05.996Z,9.70
2018-03-28T12:54:05.402Z,9.80
2018-03-28T12:55:05.515Z,9.70
2018-03-28T12:56:05.304Z,9.70
2018-03-28T12:57:15.700Z,9.70
2018-03-28T12:58:05.235Z,9.70
2018-03-28T12:59:05.867Z,9.70
2018-03-28T13:00:05.995Z,9.70
2018-03-28T13:01:05.817Z,9.70
2018-03-28T13:02:05.735Z,9.70
2018-03-28T13:03:11.053Z,9.70
2018-03-28T13:04:05.467Z,9.70
2018-03-28T13:05:05.371Z,9.70
2018-03-28T13:06:08.778Z,9.70
2018-03-28T13:07:05.334Z,9.60
2018-03-28T13:08:05.262Z,9.60
2018-03-28T13:09:05.626Z,9.60
2018-03-28T13:10:06.153Z,9.60
2018-03-28T13:11:06.097Z,9.70
2018-03-28T13:12:05.641Z,9.60
2018-03-28T13:13:08.831Z,9.70
2018-03-28T13:14:05.484Z,9.60
2018-03-28T13:15:05.129Z,9.70
2018-03-28T13:16:05.631Z,9.60
2018-03-28T13:17:05.963Z,9.60
2018-03-28T13:18:08.777Z,9.60